Time;durP1;ratioP1;P1;durP2;ratioP2;P2;SDS_P1;SDS_P2;PMS_P1;PMS_P2;Temp;Humidity;BMP_temperature;BMP_pressure;BME280_temperature;BME280_humidity;BME280_pressure;Samples;Min_cycle;Max_cycle;Signal;HPM_P1;HPM_P2
2023/03/25 00:01:28;;;;;;;29.90;13.87;;;;;;;9.95;80.89;94899.53;5033673;28;20230;-71
2023/03/25 00:03:54;;;;;;;31.83;13.33;;;;;;;9.96;81.01;94893.28;5032874;28;20781;-71
2023/03/25 00:06:19;;;;;;;31.53;13.53;;;;;;;9.86;81.24;94898.06;5019495;28;20225;-71
2023/03/25 00:08:45;;;;;;;32.20;14.17;;;;;;;9.87;80.79;94898.88;5016065;28;20316;-70
2023/03/25 00:11:10;;;;;;;31.33;14.33;;;;;;;9.80;81.03;94898.84;5012830;28;20229;-72
2023/03/25 00:13:36;;;;;;;32.90;14.23;;;;;;;9.96;80.73;94895.06;5017666;28;20712;-71
2023/03/25 00:16:02;;;;;;;30.93;14.03;;;;;;;9.93;81.11;94888.47;5008933;28;20820;-71
2023/03/25 00:18:32;;;;;;;32.20;14.77;;;;;;;10.07;80.78;94886.69;5009137;28;20238;-71
2023/03/25 00:20:58;;;;;;;36.70;15.60;;;;;;;9.90;81.72;94878.38;5008194;28;20250;-71
2023/03/25 00:23:23;;;;;;;30.87;14.40;;;;;;;9.95;81.52;94880.41;5004690;28;20335;-72
2023/03/25 00:25:51;;;;;;;30.93;14.33;;;;;;;9.83;82.22;94881.97;5028559;28;20234;-71
2023/03/25 00:28:16;;;;;;;32.53;15.07;;;;;;;9.47;83.30;94877.00;5015836;28;20229;-72
2023/03/25 00:30:42;;;;;;;31.80;14.77;;;;;;;9.46;83.51;94875.38;5012620;28;20237;-72
2023/03/25 00:33:12;;;;;;;34.97;15.13;;;;;;;9.44;84.11;94872.97;5017797;28;20230;-72
2023/03/25 00:35:43;;;;;;;32.87;14.80;;;;;;;9.49;83.75;94870.56;5017740;28;21082;-71
2023/03/25 00:38:09;;;;;;;32.43;14.10;;;;;;;9.53;83.28;94875.41;5009866;28;20296;-72
2023/03/25 00:40:34;;;;;;;34.20;14.77;;;;;;;9.40;83.95;94870.94;5012651;28;20707;-72
2023/03/25 00:43:00;;;;;;;39.80;15.73;;;;;;;9.33;83.67;94877.94;5020984;28;20302;-72
2023/03/25 00:45:26;;;;;;;36.67;15.50;;;;;;;9.36;84.70;94872.31;5013418;28;20230;-71
2023/03/25 00:47:52;;;;;;;38.50;15.33;;;;;;;9.60;84.36;94871.03;5032668;28;20225;-72
2023/03/25 00:50:17;;;;;;;34.27;15.60;;;;;;;9.47;83.79;94866.53;5017522;28;20593;-72
2023/03/25 00:52:43;;;;;;;34.60;15.40;;;;;;;9.54;84.48;94862.16;5007227;28;20789;-71
2023/03/25 00:55:08;;;;;;;31.13;15.37;;;;;;;9.40;83.88;94863.09;5013423;28;20225;-72
2023/03/25 00:57:35;;;;;;;37.03;15.67;;;;;;;9.37;84.66;94860.84;5017909;28;20317;-70
2023/03/25 01:00:00;;;;;;;37.67;16.07;;;;;;;9.48;83.80;94855.88;5013256;28;20271;-71
2023/03/25 01:02:27;;;;;;;37.60;15.37;;;;;;;9.44;84.66;94852.06;5008184;28;20238;-72
2023/03/25 01:04:52;;;;;;;32.37;15.33;;;;;;;9.44;84.58;94849.44;5025232;28;20631;-72
2023/03/25 01:07:19;;;;;;;32.43;15.43;;;;;;;9.32;84.95;94848.38;5021428;28;20230;-72
2023/03/25 01:09:45;;;;;;;37.03;15.63;;;;;;;9.30;84.29;94852.19;4999498;28;20231;-72
2023/03/25 01:12:11;;;;;;;31.77;15.40;;;;;;;9.23;84.74;94851.34;5014551;28;20746;-72
2023/03/25 01:14:37;;;;;;;37.10;15.57;;;;;;;9.14;85.94;94842.06;5004656;28;20233;-72
2023/03/25 01:17:02;;;;;;;36.83;15.67;;;;;;;8.97;86.20;94838.13;4998146;28;20238;-72
2023/03/25 01:19:27;;;;;;;37.40;15.33;;;;;;;8.84;87.05;94843.28;4994873;28;21011;-72
2023/03/25 01:21:53;;;;;;;37.90;16.27;;;;;;;8.94;87.39;94833.28;4974065;28;20226;-72
2023/03/25 01:24:19;;;;;;;31.77;15.57;;;;;;;9.09;86.45;94836.59;4969508;28;20254;-71
2023/03/25 01:26:44;;;;;;;29.30;15.30;;;;;;;9.05;86.13;94836.16;4972125;28;20269;-71
2023/03/25 01:29:14;;;;;;;33.13;15.40;;;;;;;9.13;85.11;94825.59;4971599;28;21333;-73
2023/03/25 01:31:40;;;;;;;33.33;16.17;;;;;;;8.99;86.18;94820.47;4985487;28;20250;-72
2023/03/25 01:34:06;;;;;;;37.20;15.07;;;;;;;9.17;84.31;94821.59;5002124;28;20245;-72
2023/03/25 01:36:32;;;;;;;37.70;15.80;;;;;;;9.14;85.06;94816.78;5025495;28;20238;-72
2023/03/25 01:38:58;;;;;;;34.47;15.90;;;;;;;9.01;85.49;94808.84;5005168;28;20288;-72
2023/03/25 01:41:24;;;;;;;31.10;15.47;;;;;;;8.97;86.19;94812.84;5004212;28;20230;-72
2023/03/25 01:44:07;;;;;;;32.40;15.77;;;;;;;9.10;86.22;94810.28;5015219;28;20234;-72
2023/03/25 01:46:33;;;;;;;36.37;15.43;;;;;;;8.92;86.42;94801.38;5047529;28;20318;-72
2023/03/25 01:48:59;;;;;;;32.57;15.73;;;;;;;8.93;87.01;94811.63;5008445;28;20229;-72
2023/03/25 01:51:26;;;;;;;34.90;15.80;;;;;;;8.83;86.99;94803.34;4994404;28;21360;-72
2023/03/25 01:53:52;;;;;;;35.47;15.67;;;;;;;8.90;87.06;94811.19;4988754;28;20725;-71
2023/03/25 01:56:19;;;;;;;35.00;16.10;;;;;;;8.90;86.63;94812.00;5003479;28;20273;-72
2023/03/25 01:58:45;;;;;;;36.17;15.90;;;;;;;8.82;87.43;94820.78;4994049;28;20313;-72
2023/03/25 02:01:15;;;;;;;32.40;15.67;;;;;;;8.87;86.78;94811.56;4998355;28;20242;-72
2023/03/25 02:03:45;;;;;;;37.90;15.97;;;;;;;8.93;87.20;94816.03;5006475;28;20266;-71
2023/03/25 02:06:27;;;;;;;38.10;15.80;;;;;;;8.65;87.52;94803.00;5001908;28;20269;-73
2023/03/25 02:08:53;;;;;;;31.87;15.63;;;;;;;8.66;87.26;94804.63;5014542;28;20229;-71
2023/03/25 02:11:19;;;;;;;33.60;14.97;;;;;;;8.71;86.99;94802.25;5000814;28;20240;-71
2023/03/25 02:13:44;;;;;;;33.50;15.87;;;;;;;8.69;87.58;94796.41;5010004;28;20237;-70
2023/03/25 02:16:34;;;;;;;34.30;15.93;;;;;;;8.80;87.59;94791.47;4990857;28;20235;-71
2023/03/25 02:19:03;;;;;;;37.57;16.70;;;;;;;8.81;86.90;94794.91;5020665;28;20312;-72
2023/03/25 02:22:13;;;;;;;34.53;16.03;;;;;;;8.86;86.94;94794.31;5008677;28;20233;-71
2023/03/25 02:25:03;;;;;;;38.20;16.23;;;;;;;9.08;86.36;94791.41;5013421;28;20245;-71
2023/03/25 02:27:50;;;;;;;34.47;16.03;;;;;;;9.23;85.29;94793.91;4975478;28;20238;-72
2023/03/25 02:30:27;;;;;;;35.20;16.40;;;;;;;9.14;85.59;94795.88;5022104;28;20233;-71
2023/03/25 02:33:05;;;;;;;35.67;16.53;;;;;;;9.18;85.27;94796.28;5033903;28;20237;-71
2023/03/25 02:36:01;;;;;;;37.73;16.47;;;;;;;9.16;84.68;94791.28;5050164;28;20302;-71
2023/03/25 02:38:42;;;;;;;31.20;15.70;;;;;;;9.02;85.86;94786.16;5032705;28;20234;-72
2023/03/25 02:41:16;;;;;;;33.57;16.20;;;;;;;8.81;86.57;94789.69;5026092;28;20245;-72
2023/03/25 02:43:51;;;;;;;36.97;15.43;;;;;;;8.97;85.63;94794.59;5009346;28;20250;-71
2023/03/25 02:46:16;;;;;;;34.60;16.40;;;;;;;9.09;84.97;94794.84;4995958;28;20233;-72
2023/03/25 02:49:05;;;;;;;33.70;15.87;;;;;;;8.77;85.63;94784.03;4989573;28;20230;-72
2023/03/25 02:51:33;;;;;;;32.60;15.30;;;;;;;8.62;86.78;94792.97;4988236;28;20226;-72
2023/03/25 02:54:11;;;;;;;32.10;15.90;;;;;;;8.58;87.30;94786.50;4995676;28;20262;-72
2023/03/25 02:56:38;;;;;;;29.77;15.47;;;;;;;8.58;87.45;94783.88;5019307;28;20236;-72
2023/03/25 02:59:03;;;;;;;34.40;15.40;;;;;;;8.60;86.80;94787.09;5008937;28;20612;-71
2023/03/25 03:01:29;;;;;;;35.03;15.50;;;;;;;8.47;87.37;94774.00;5017315;28;20241;-72
2023/03/25 03:03:55;;;;;;;32.43;14.97;;;;;;;8.52;86.86;94779.44;4985709;28;20238;-72
2023/03/25 03:06:20;;;;;;;32.27;15.30;;;;;;;8.22;87.84;94775.34;4984765;28;20265;-71
2023/03/25 03:08:53;;;;;;;33.50;15.40;;;;;;;8.32;87.52;94770.66;4999669;28;20236;-71
2023/03/25 03:11:51;;;;;;;30.97;15.00;;;;;;;8.22;87.96;94767.53;5006638;28;20320;-72
2023/03/25 03:14:19;;;;;;;31.80;14.80;;;;;;;8.28;88.34;94772.84;4984243;28;20241;-72
2023/03/25 03:16:44;;;;;;;29.60;15.33;;;;;;;8.33;87.80;94767.06;5022295;28;20331;-72
2023/03/25 03:19:20;;;;;;;30.07;15.30;;;;;;;8.28;88.72;94778.06;5023629;28;21173;-73
2023/03/25 03:22:24;;;;;;;34.63;15.50;;;;;;;8.15;88.77;94780.53;5012196;28;20280;-71
2023/03/25 03:24:54;;;;;;;32.47;15.43;;;;;;;8.13;89.18;94774.69;5025534;28;20225;-72
2023/03/25 03:27:34;;;;;;;31.03;15.03;;;;;;;7.99;89.54;94783.41;5004060;28;20234;-71
2023/03/25 03:30:31;;;;;;;33.27;15.33;;;;;;;8.11;89.90;94777.50;5018349;28;20229;-71
2023/03/25 03:33:35;;;;;;;33.67;15.13;;;;;;;8.33;87.72;94775.69;5029707;28;20237;-71
2023/03/25 03:36:04;;;;;;;37.23;14.97;;;;;;;8.13;88.19;94775.50;5014923;28;20960;-71
2023/03/25 03:38:36;;;;;;;31.50;15.23;;;;;;;8.17;87.86;94775.13;5023277;28;20257;-72
2023/03/25 03:41:05;;;;;;;32.17;16.10;;;;;;;8.40;86.97;94780.97;5031375;28;20241;-71
2023/03/25 03:43:35;;;;;;;31.83;15.67;;;;;;;8.33;88.01;94782.72;5017843;28;20230;-71
2023/03/25 03:46:04;;;;;;;31.73;14.83;;;;;;;8.26;87.91;94782.66;5030372;28;20238;-71
2023/03/25 03:48:34;;;;;;;31.43;14.77;;;;;;;8.32;88.07;94786.31;5015696;28;20234;-71
2023/03/25 03:51:02;;;;;;;31.90;15.13;;;;;;;8.20;88.08;94777.34;5009572;28;20770;-71
2023/03/25 03:53:28;;;;;;;33.00;15.67;;;;;;;8.05;88.57;94782.63;5010083;28;20230;-71
2023/03/25 03:56:08;;;;;;;34.40;15.43;;;;;;;7.93;90.03;94779.72;5032680;28;20240;-71
2023/03/25 03:58:36;;;;;;;32.20;15.47;;;;;;;8.08;89.34;94784.88;5014168;28;20237;-71
2023/03/25 04:01:44;;;;;;;34.67;15.97;;;;;;;8.23;88.73;94777.78;5012671;28;20230;-70
2023/03/25 04:04:12;;;;;;;35.40;15.27;;;;;;;8.38;88.47;94778.56;5013502;28;20894;-72
2023/03/25 04:07:03;;;;;;;32.80;16.17;;;;;;;8.25;88.54;94786.22;5003139;28;20625;-72
2023/03/25 04:09:32;;;;;;;31.90;15.70;;;;;;;8.07;88.53;94784.06;5032935;28;20225;-71
2023/03/25 04:12:03;;;;;;;33.67;16.07;;;;;;;7.95;90.03;94782.94;5033184;28;20264;-72
2023/03/25 04:14:29;;;;;;;32.53;15.90;;;;;;;7.78;90.07;94788.59;5006935;28;20307;-72
2023/03/25 04:16:55;;;;;;;34.07;15.43;;;;;;;7.69;90.80;94785.28;5017132;28;20702;-72
2023/03/25 04:19:20;;;;;;;35.90;16.20;;;;;;;7.71;91.46;94779.91;5034796;28;20355;-72
2023/03/25 04:21:49;;;;;;;35.63;16.10;;;;;;;7.59;91.92;94781.41;5035431;28;20245;-72
2023/03/25 04:24:18;;;;;;;33.47;16.23;;;;;;;7.65;91.35;94783.25;5022299;28;20233;-72
2023/03/25 04:26:44;;;;;;;30.53;16.10;;;;;;;7.57;92.22;94778.19;5006270;28;20748;-72
2023/03/25 04:29:12;;;;;;;35.90;16.43;;;;;;;7.68;91.49;94773.28;5019844;28;20785;-72
2023/03/25 04:31:45;;;;;;;30.30;14.80;;;;;;;7.70;90.93;94779.09;5008667;28;20794;-71
2023/03/25 04:34:12;;;;;;;37.07;16.07;;;;;;;7.73;91.08;94778.75;5016644;28;20384;-72
2023/03/25 04:36:40;;;;;;;36.17;15.33;;;;;;;8.02;90.35;94778.59;5033527;28;20301;-71
2023/03/25 04:39:06;;;;;;;32.37;15.50;;;;;;;7.84;91.01;94783.44;5017970;28;20643;-73
2023/03/25 04:41:32;;;;;;;34.70;15.90;;;;;;;7.96;90.04;94794.19;5016115;28;20230;-72
2023/03/25 04:43:58;;;;;;;34.70;15.93;;;;;;;7.98;90.45;94789.59;5015179;28;20222;-71
2023/03/25 04:46:23;;;;;;;37.80;16.27;;;;;;;7.82;90.18;94787.25;5017324;28;20231;-72
2023/03/25 04:48:49;;;;;;;40.30;15.93;;;;;;;7.74;91.45;94792.59;5007368;28;20226;-72
2023/03/25 04:51:14;;;;;;;36.57;15.67;;;;;;;7.98;90.86;94789.59;5016304;28;20722;-72
2023/03/25 04:53:40;;;;;;;34.50;16.00;;;;;;;7.72;91.48;94789.34;5018791;28;20295;-71
2023/03/25 04:56:11;;;;;;;35.90;15.63;;;;;;;8.04;90.36;94792.28;5015033;28;20252;-72
2023/03/25 04:58:37;;;;;;;35.17;15.63;;;;;;;8.14;89.68;94799.78;5016110;28;20253;-72
2023/03/25 05:01:10;;;;;;;32.37;15.73;;;;;;;8.15;89.98;94791.75;5014681;28;20680;-71
2023/03/25 05:03:38;;;;;;;32.37;15.93;;;;;;;8.31;89.84;94797.75;5019275;28;20229;-72
2023/03/25 05:06:04;;;;;;;37.17;16.20;;;;;;;8.40;89.00;94791.38;5023843;28;20234;-72
2023/03/25 05:08:30;;;;;;;32.30;15.97;;;;;;;8.36;89.75;94805.81;5033838;28;20236;-72
2023/03/25 05:10:55;;;;;;;40.27;16.20;;;;;;;8.37;89.73;94800.41;5018401;28;20312;-72
2023/03/25 05:13:21;;;;;;;34.60;16.47;;;;;;;8.52;89.20;94800.31;5016462;28;20234;-72
2023/03/25 05:15:46;;;;;;;32.90;15.50;;;;;;;8.57;88.85;94795.34;5005368;28;20238;-71
2023/03/25 05:18:13;;;;;;;34.23;16.27;;;;;;;8.74;88.42;94801.88;5016640;28;20302;-72
2023/03/25 05:20:39;;;;;;;31.20;15.83;;;;;;;9.24;86.20;94796.31;5007394;28;20240;-72
2023/03/25 05:23:15;;;;;;;36.17;16.07;;;;;;;9.53;84.21;94797.81;5018179;28;20225;-72
2023/03/25 05:25:44;;;;;;;36.67;16.77;;;;;;;10.36;80.86;94800.06;5038945;28;20235;-72
2023/03/25 05:28:12;;;;;;;32.20;15.73;;;;;;;10.34;80.77;94801.25;4999192;28;20931;-71
2023/03/25 05:30:42;;;;;;;30.50;15.70;;;;;;;10.50;78.62;94806.09;5024303;28;20252;-71
2023/03/25 05:33:09;;;;;;;32.77;15.23;;;;;;;11.28;76.71;94800.72;5004521;28;20284;-73
2023/03/25 05:35:38;;;;;;;29.87;15.33;;;;;;;11.04;76.82;94800.56;5018538;28;20264;-72
2023/03/25 05:38:04;;;;;;;32.30;15.17;;;;;;;10.63;78.37;94791.16;5003298;28;20233;-72
2023/03/25 05:40:30;;;;;;;30.30;15.20;;;;;;;10.41;80.80;94802.06;5006119;28;20237;-73
2023/03/25 05:42:55;;;;;;;29.03;15.53;;;;;;;10.46;80.68;94803.06;5017204;28;20325;-72
2023/03/25 05:45:21;;;;;;;37.13;16.07;;;;;;;10.49;80.28;94810.50;4997575;28;20249;-73
2023/03/25 05:47:47;;;;;;;34.30;16.40;;;;;;;10.55;81.00;94808.91;5022649;28;20233;-73
2023/03/25 05:50:15;;;;;;;33.77;16.10;;;;;;;10.60;79.79;94801.25;5015796;28;20937;-73
2023/03/25 05:52:41;;;;;;;36.13;17.07;;;;;;;10.86;79.23;94797.81;5004765;28;20230;-73
2023/03/25 05:55:10;;;;;;;35.87;17.47;;;;;;;11.01;77.27;94801.00;5000317;28;20328;-73
2023/03/25 05:57:36;;;;;;;35.77;17.80;;;;;;;11.10;77.37;94799.75;4999927;28;20703;-72
2023/03/25 06:00:07;;;;;;;38.27;19.33;;;;;;;11.12;77.30;94800.38;5028788;28;20288;-72
2023/03/25 06:02:33;;;;;;;51.63;23.07;;;;;;;11.00;78.98;94802.00;5007680;28;20313;-72
2023/03/25 06:04:58;;;;;;;56.33;24.63;;;;;;;10.85;80.58;94802.22;5030768;28;20222;-72
2023/03/25 06:07:24;;;;;;;52.20;24.47;;;;;;;10.75;82.51;94807.06;5007883;28;20797;-72
2023/03/25 06:09:53;;;;;;;64.13;28.37;;;;;;;10.80;79.19;94802.84;5012900;28;20239;-71
2023/03/25 06:12:21;;;;;;;61.47;28.23;;;;;;;10.56;76.74;94798.22;5002455;28;20242;-72
2023/03/25 06:14:47;;;;;;;63.00;27.33;;;;;;;10.83;76.17;94796.38;5012841;28;20312;-72
2023/03/25 06:17:17;;;;;;;53.33;26.27;;;;;;;10.88;75.20;94793.16;5015013;28;20281;-72
2023/03/25 06:19:43;;;;;;;56.37;25.60;;;;;;;10.88;74.51;94795.78;5015395;28;20319;-73
2023/03/25 06:22:09;;;;;;;53.37;24.80;;;;;;;10.93;75.08;94802.03;5022430;28;20308;-72
2023/03/25 06:24:38;;;;;;;56.23;24.70;;;;;;;11.05;73.71;94794.34;5014657;28;20225;-72
2023/03/25 06:27:05;;;;;;;51.63;23.87;;;;;;;11.22;73.79;94796.31;5028756;28;20237;-73
2023/03/25 06:29:36;;;;;;;53.67;23.70;;;;;;;11.25;72.81;94800.31;5005676;28;20711;-73
2023/03/25 06:32:02;;;;;;;45.23;22.93;;;;;;;11.30;73.80;94801.31;5007355;28;20256;-73
2023/03/25 06:34:28;;;;;;;44.40;21.50;;;;;;;11.29;73.29;94806.75;5000639;28;20233;-72
2023/03/25 06:36:53;;;;;;;44.43;21.40;;;;;;;11.38;73.54;94816.00;5023514;28;20240;-73
2023/03/25 06:39:19;;;;;;;44.50;20.47;;;;;;;11.35;73.47;94804.13;5015013;28;20230;-72
2023/03/25 06:41:45;;;;;;;46.97;19.57;;;;;;;11.27;73.57;94808.78;5027794;28;20739;-72
2023/03/25 06:44:11;;;;;;;45.50;19.87;;;;;;;11.31;73.41;94804.75;5011003;28;20230;-73
2023/03/25 06:46:36;;;;;;;39.63;20.30;;;;;;;11.49;72.87;94808.28;4999072;28;20237;-72
2023/03/25 06:49:02;;;;;;;45.90;21.00;;;;;;;11.46;73.25;94813.16;5019792;28;20240;-72
2023/03/25 06:51:27;;;;;;;45.23;21.63;;;;;;;11.52;72.70;94807.09;5017070;28;20265;-72
2023/03/25 06:53:53;;;;;;;44.23;21.73;;;;;;;11.72;73.08;94804.41;5013899;28;20237;-72
2023/03/25 06:56:18;;;;;;;44.53;22.53;;;;;;;11.93;72.03;94806.72;5005491;28;20229;-72
2023/03/25 06:58:44;;;;;;;39.10;20.33;;;;;;;11.80;71.49;94810.19;5022522;28;20307;-72
2023/03/25 07:01:09;;;;;;;38.33;20.47;;;;;;;11.97;70.91;94813.13;5028910;28;20250;-73
2023/03/25 07:03:35;;;;;;;41.30;20.67;;;;;;;12.09;70.24;94817.50;5005370;28;20226;-72
2023/03/25 07:06:01;;;;;;;37.00;19.27;;;;;;;12.45;70.82;94816.88;5018295;28;20662;-73
2023/03/25 07:08:26;;;;;;;38.80;19.37;;;;;;;12.47;69.13;94817.47;5008565;28;20229;-72
2023/03/25 07:10:52;;;;;;;32.97;18.47;;;;;;;12.56;68.44;94816.16;5001294;28;20246;-72
2023/03/25 07:13:17;;;;;;;33.87;18.10;;;;;;;12.87;68.58;94815.34;5004515;28;20226;-73
2023/03/25 07:15:46;;;;;;;34.80;18.80;;;;;;;13.22;66.87;94807.72;5033624;28;20364;-72
2023/03/25 07:18:12;;;;;;;37.80;18.67;;;;;;;13.30;65.03;94802.19;5018959;28;20237;-72
2023/03/25 07:20:37;;;;;;;38.77;18.60;;;;;;;13.46;65.62;94806.88;5035726;28;20230;-72
2023/03/25 07:23:03;;;;;;;33.73;17.53;;;;;;;13.56;64.77;94807.16;5031204;28;20233;-72
2023/03/25 07:25:28;;;;;;;35.47;18.03;;;;;;;13.72;63.64;94808.38;5032173;28;21028;-73
2023/03/25 07:27:54;;;;;;;35.17;17.33;;;;;;;13.80;62.97;94818.59;5018163;28;20237;-72
2023/03/25 07:30:19;;;;;;;33.83;16.93;;;;;;;13.88;63.43;94818.28;5034098;28;20245;-73
2023/03/25 07:32:45;;;;;;;35.07;17.40;;;;;;;14.00;62.96;94808.59;5004465;28;20238;-72
2023/03/25 07:35:10;;;;;;;32.50;17.57;;;;;;;14.02;62.63;94804.72;5033036;28;20699;-72
2023/03/25 07:37:36;;;;;;;32.40;16.83;;;;;;;14.30;63.19;94809.44;5019264;28;20714;-72
2023/03/25 07:40:02;;;;;;;29.33;16.37;;;;;;;13.86;62.66;94808.00;5025515;28;20659;-72
2023/03/25 07:42:27;;;;;;;33.97;16.67;;;;;;;14.24;61.49;94804.22;5038677;28;20240;-72
2023/03/25 07:44:53;;;;;;;32.07;16.33;;;;;;;14.30;62.62;94798.91;5016254;28;20241;-73
2023/03/25 07:47:18;;;;;;;36.93;17.10;;;;;;;14.26;61.42;94800.34;5034382;28;20230;-72
2023/03/25 07:49:45;;;;;;;35.40;17.47;;;;;;;14.47;61.92;94796.44;5031307;28;20269;-71
2023/03/25 07:52:11;;;;;;;33.47;16.97;;;;;;;15.01;60.74;94796.13;5002234;28;20734;-72
2023/03/25 07:54:37;;;;;;;33.33;17.10;;;;;;;15.22;59.89;94792.91;5020184;28;20233;-71
2023/03/25 07:57:02;;;;;;;38.37;17.53;;;;;;;15.19;59.42;94784.69;5014461;28;20225;-73
2023/03/25 07:59:28;;;;;;;34.07;17.33;;;;;;;15.29;59.25;94782.25;5001615;28;20752;-72
2023/03/25 08:01:53;;;;;;;34.60;17.20;;;;;;;15.10;59.10;94773.66;5014676;28;20233;-73
2023/03/25 08:04:19;;;;;;;37.30;17.00;;;;;;;14.94;60.47;94781.47;5024871;28;20226;-73
2023/03/25 08:06:44;;;;;;;33.67;17.03;;;;;;;15.23;59.38;94777.91;5013962;28;20261;-73
2023/03/25 08:09:10;;;;;;;35.53;16.47;;;;;;;15.34;59.35;94774.44;5016752;28;20238;-73
2023/03/25 08:11:36;;;;;;;31.20;16.73;;;;;;;15.42;58.72;94771.44;5024571;28;20234;-72
2023/03/25 08:14:01;;;;;;;33.80;16.30;;;;;;;15.25;58.93;94768.72;5019634;28;20234;-72
2023/03/25 08:16:27;;;;;;;34.93;16.50;;;;;;;15.42;59.85;94768.81;5030329;28;20242;-72
2023/03/25 08:18:52;;;;;;;34.40;17.50;;;;;;;15.27;59.23;94764.03;5034979;28;20280;-72
2023/03/25 08:21:24;;;;;;;33.87;16.20;;;;;;;15.57;58.97;94763.06;4995353;28;20608;-72
2023/03/25 08:24:01;;;;;;;30.73;16.13;;;;;;;15.52;58.94;94757.69;5017755;28;20226;-72
2023/03/25 08:26:30;;;;;;;30.33;15.97;;;;;;;15.51;57.47;94759.53;5018550;28;21018;-72
2023/03/25 08:28:56;;;;;;;33.90;16.30;;;;;;;15.59;57.33;94753.09;5007992;28;20246;-71
2023/03/25 08:31:25;;;;;;;28.77;15.00;;;;;;;15.77;58.82;94752.91;5019069;28;20320;-72
2023/03/25 08:33:51;;;;;;;27.33;15.57;;;;;;;15.97;56.95;94748.81;5019853;28;20237;-73
2023/03/25 08:36:22;;;;;;;32.43;15.47;;;;;;;16.03;58.79;94754.97;5010337;28;20237;-73
2023/03/25 08:38:48;;;;;;;31.73;14.77;;;;;;;16.22;57.36;94756.38;5000595;28;20231;-72
2023/03/25 08:41:14;;;;;;;30.53;14.90;;;;;;;16.36;56.10;94751.59;5018709;28;20251;-72
2023/03/25 08:43:39;;;;;;;28.77;14.30;;;;;;;16.72;54.82;94740.56;5013391;28;20626;-72
2023/03/25 08:46:05;;;;;;;32.77;14.90;;;;;;;16.70;52.91;94743.47;5014839;28;20233;-72
2023/03/25 08:48:30;;;;;;;28.60;14.73;;;;;;;16.80;53.45;94735.69;5031009;28;20229;-71
2023/03/25 08:50:56;;;;;;;30.53;14.80;;;;;;;17.11;53.40;94733.47;4998149;28;20248;-72
2023/03/25 08:53:21;;;;;;;33.03;14.53;;;;;;;17.02;53.08;94738.38;5028296;28;20245;-73
2023/03/25 08:55:51;;;;;;;32.40;14.40;;;;;;;17.01;53.87;94731.47;4996575;28;20698;-72
2023/03/25 08:58:17;;;;;;;29.80;14.73;;;;;;;17.04;54.42;94733.66;5029303;28;20323;-73
2023/03/25 09:00:42;;;;;;;28.43;13.67;;;;;;;16.62;54.55;94725.34;5015645;28;20734;-72
2023/03/25 09:03:08;;;;;;;34.80;15.40;;;;;;;16.58;54.08;94731.38;5015873;28;20253;-73
2023/03/25 09:05:36;;;;;;;31.77;14.67;;;;;;;16.89;55.31;94722.03;5020095;28;20330;-72
2023/03/25 09:08:02;;;;;;;31.53;14.80;;;;;;;16.91;54.27;94719.97;5013123;28;20241;-72
2023/03/25 09:10:28;;;;;;;25.43;13.63;;;;;;;17.21;53.61;94715.09;5006825;28;20299;-72
2023/03/25 09:12:53;;;;;;;28.63;13.37;;;;;;;17.45;51.42;94713.81;5031844;28;20694;-72
2023/03/25 09:15:19;;;;;;;26.30;14.13;;;;;;;17.60;51.78;94719.28;5016763;28;20233;-72
2023/03/25 09:17:45;;;;;;;26.27;13.77;;;;;;;17.60;50.17;94708.69;5021955;28;20340;-72
2023/03/25 09:20:11;;;;;;;27.27;13.27;;;;;;;17.56;50.81;94706.78;5006293;28;20337;-71
2023/03/25 09:22:37;;;;;;;26.10;12.70;;;;;;;17.77;49.89;94703.34;5016233;28;20237;-72
2023/03/25 09:25:02;;;;;;;22.47;11.90;;;;;;;17.92;49.77;94692.91;5033234;28;20230;-73
2023/03/25 09:27:28;;;;;;;27.47;12.40;;;;;;;18.11;48.93;94696.78;5007144;28;20225;-72
2023/03/25 09:29:54;;;;;;;23.50;12.10;;;;;;;18.37;48.89;94701.25;5016938;28;20243;-72
2023/03/25 09:32:19;;;;;;;22.53;11.00;;;;;;;18.62;46.93;94704.16;5030579;28;20669;-73
2023/03/25 09:34:45;;;;;;;27.03;11.63;;;;;;;18.30;48.97;94700.66;5029127;28;20225;-72
2023/03/25 09:37:10;;;;;;;25.93;10.90;;;;;;;18.24;49.95;94695.59;5022815;28;20662;-72
2023/03/25 09:39:36;;;;;;;18.23;10.37;;;;;;;18.23;48.65;94691.31;5033896;28;20244;-72
2023/03/25 09:42:19;;;;;;;22.10;10.43;;;;;;;18.74;48.05;94686.19;5029420;28;20318;-73
2023/03/25 09:44:53;;;;;;;21.07;11.17;;;;;;;18.66;47.71;94691.97;5031870;28;20240;-73
2023/03/25 09:47:19;;;;;;;22.27;9.93;;;;;;;18.62;48.54;94688.25;5033733;28;20736;-73
2023/03/25 09:49:45;;;;;;;21.23;9.43;;;;;;;18.67;48.59;94682.16;5016780;28;20282;-72
2023/03/25 09:52:23;;;;;;;18.97;9.90;;;;;;;18.50;48.57;94682.31;5002207;28;20237;-73
2023/03/25 09:54:54;;;;;;;21.60;10.17;;;;;;;18.57;48.82;94674.13;5017836;28;20237;-73
2023/03/25 09:57:21;;;;;;;23.00;10.07;;;;;;;18.77;48.63;94669.75;5013785;28;20264;-72
2023/03/25 09:59:48;;;;;;;23.03;9.50;;;;;;;18.82;49.19;94661.84;5006761;28;20307;-72
2023/03/25 10:02:38;;;;;;;13.57;8.03;;;;;;;19.27;47.39;94663.13;5006127;28;20237;-73
2023/03/25 10:05:18;;;;;;;16.63;6.97;;;;;;;19.16;45.47;94664.13;5031860;28;20240;-71
2023/03/25 10:07:59;;;;;;;17.77;6.40;;;;;;;19.19;44.30;94669.72;5020155;28;20324;-72
2023/03/25 10:10:43;;;;;;;13.40;5.57;;;;;;;19.53;43.19;94667.50;5031591;28;20290;-72
2023/03/25 10:13:23;;;;;;;14.77;5.40;;;;;;;19.46;42.06;94653.69;5031086;28;20268;-72
2023/03/25 10:16:04;;;;;;;10.70;4.90;;;;;;;19.45;42.40;94644.91;5030455;28;20723;-73
2023/03/25 10:18:47;;;;;;;9.37;4.70;;;;;;;19.49;40.99;94653.94;5028140;28;20963;-73
2023/03/25 10:21:31;;;;;;;9.83;4.17;;;;;;;19.40;40.08;94646.75;5031219;28;20238;-72
2023/03/25 10:24:26;;;;;;;8.17;4.30;;;;;;;19.87;39.52;94643.97;5029004;28;20241;-72
2023/03/25 10:27:01;;;;;;;8.80;4.50;;;;;;;20.24;40.33;94633.09;5013542;28;20241;-71
2023/03/25 10:29:30;;;;;;;6.50;4.10;;;;;;;20.28;37.99;94626.19;5015224;28;20233;-71
2023/03/25 10:32:02;;;;;;;7.23;4.00;;;;;;;20.06;39.70;94629.88;5032071;28;20787;-72
2023/03/25 10:34:35;;;;;;;8.77;3.97;;;;;;;20.07;38.44;94626.16;5004613;28;20226;-72
2023/03/25 10:37:03;;;;;;;7.83;4.00;;;;;;;19.94;39.69;94624.03;5018544;28;20237;-71
2023/03/25 10:39:36;;;;;;;7.13;4.07;;;;;;;19.89;39.02;94616.06;5021649;28;20240;-72
2023/03/25 10:42:23;;;;;;;8.00;4.00;;;;;;;19.97;38.74;94620.84;5023862;28;20268;-70
2023/03/25 10:44:49;;;;;;;8.00;4.17;;;;;;;19.81;37.90;94602.50;5002780;28;20226;-70
2023/03/25 10:47:20;;;;;;;7.03;4.37;;;;;;;19.75;39.57;94601.69;5014546;28;20236;-70
2023/03/25 10:49:46;;;;;;;8.20;4.63;;;;;;;19.71;39.75;94594.50;5012019;28;20867;-71
2023/03/25 10:52:11;;;;;;;7.77;4.70;;;;;;;19.62;39.49;94594.25;4999368;28;20226;-72
2023/03/25 10:54:40;;;;;;;8.73;4.57;;;;;;;19.63;39.86;94600.38;5000818;28;20235;-71
2023/03/25 10:57:09;;;;;;;7.90;4.47;;;;;;;19.85;39.91;94598.25;5017435;28;20234;-72
2023/03/25 10:59:57;;;;;;;8.10;4.30;;;;;;;19.89;40.11;94599.34;5002899;28;20614;-71
2023/03/25 11:02:26;;;;;;;8.70;4.50;;;;;;;20.16;40.16;94584.72;5034153;28;20622;-70
2023/03/25 11:04:55;;;;;;;7.70;4.57;;;;;;;20.23;39.11;94581.81;5018587;28;20229;-71
2023/03/25 11:07:40;;;;;;;9.77;4.80;;;;;;;20.03;39.60;94587.91;5009044;28;20242;-70
2023/03/25 11:10:13;;;;;;;8.20;4.50;;;;;;;20.08;39.11;94574.59;5018016;28;20233;-71
2023/03/25 11:12:44;;;;;;;7.33;4.60;;;;;;;20.31;39.90;94578.63;5033951;28;20272;-70
2023/03/25 11:15:25;;;;;;;10.00;4.90;;;;;;;20.52;39.81;94568.75;5034124;28;20229;-71
2023/03/25 11:18:06;;;;;;;8.03;4.70;;;;;;;20.56;40.01;94557.28;5014045;28;20244;-70
2023/03/25 11:20:40;;;;;;;9.77;4.90;;;;;;;20.57;39.14;94555.44;4999043;28;20227;-71
2023/03/25 11:23:44;;;;;;;8.53;4.80;;;;;;;20.52;40.07;94558.91;5012825;28;20245;-71
2023/03/25 11:26:20;;;;;;;10.40;4.77;;;;;;;20.47;40.32;94558.09;5033593;28;20623;-71
2023/03/25 11:28:47;;;;;;;8.27;4.40;;;;;;;20.87;40.41;94549.22;5026669;28;20237;-71
2023/03/25 11:31:26;;;;;;;11.60;4.60;;;;;;;21.16;38.53;94547.53;5007961;28;20226;-72
2023/03/25 11:34:06;;;;;;;8.37;4.53;;;;;;;21.33;39.46;94538.13;5020487;28;20233;-71